Time;durP1;ratioP1;P1;durP2;ratioP2;P2;SDS_P1;SDS_P2;PMS_P1;PMS_P2;Temp;Humidity;BMP_temperature;BMP_pressure;BME280_temperature;BME280_humidity;BME280_pressure;Samples;Min_cycle;Max_cycle;Signal;HPM_P1;HPM_P2
2022/05/31 00:00:19;;;;;;;10.85;8.02;;;;;;;;;;5017880;28;20201;-45
2022/05/31 00:03:02;;;;;;;13.15;8.25;;;;;;;;;;5026385;28;20651;-46
2022/05/31 00:05:30;;;;;;;10.35;7.38;;;;;;;;;;5036312;28;20237;-45
2022/05/31 00:07:57;;;;;;;8.75;7.25;;;;;;;;;;5036829;28;20224;-45
2022/05/31 00:10:24;;;;;;;14.40;7.68;;;;;;;;;;5037703;28;20227;-45
2022/05/31 00:12:52;;;;;;;9.43;6.80;;;;;;;;;;5037774;28;20204;-45
2022/05/31 00:15:21;;;;;;;10.38;7.55;;;;;;;;;;5037323;28;20616;-45
2022/05/31 00:17:48;;;;;;;11.48;7.70;;;;;;;;;;5037436;28;20208;-45
2022/05/31 00:20:15;;;;;;;10.52;7.47;;;;;;;;;;5037245;28;20212;-45
2022/05/31 00:22:43;;;;;;;11.23;7.57;;;;;;;;;;5037267;28;20262;-45
2022/05/31 00:25:11;;;;;;;12.10;7.18;;;;;;;;;;5036833;28;20205;-47
2022/05/31 00:27:38;;;;;;;10.20;7.32;;;;;;;;;;5037559;28;20204;-45
2022/05/31 00:30:07;;;;;;;11.77;7.55;;;;;;;;;;5036378;28;20244;-45
2022/05/31 00:32:40;;;;;;;14.50;7.70;;;;;;;;;;5037188;28;20228;-45
2022/05/31 00:35:11;;;;;;;13.25;7.55;;;;;;;;;;5036972;28;20192;-45
2022/05/31 00:37:38;;;;;;;11.13;7.72;;;;;;;;;;5020267;28;20714;-45
2022/05/31 00:40:06;;;;;;;12.68;7.88;;;;;;;;;;5036047;28;20208;-45
2022/05/31 00:42:53;;;;;;;12.27;7.95;;;;;;;;;;5037039;28;20681;-45
2022/05/31 00:45:24;;;;;;;11.85;7.63;;;;;;;;;;5037607;28;20224;-45
2022/05/31 00:47:52;;;;;;;13.30;7.53;;;;;;;;;;5037329;28;20781;-45
2022/05/31 00:50:29;;;;;;;9.85;7.40;;;;;;;;;;5069012;28;20721;-45
2022/05/31 00:53:01;;;;;;;11.88;8.25;;;;;;;;;;5036200;28;20537;-46
2022/05/31 00:55:33;;;;;;;11.05;7.22;;;;;;;;;;5036375;28;20228;-45
2022/05/31 00:58:07;;;;;;;10.57;6.57;;;;;;;;;;5019502;28;20193;-46
2022/05/31 01:00:36;;;;;;;11.73;7.45;;;;;;;;;;5036772;28;20645;-46
2022/05/31 01:03:04;;;;;;;8.32;6.60;;;;;;;;;;5036655;28;20208;-45
2022/05/31 01:05:31;;;;;;;11.07;6.70;;;;;;;;;;5036349;28;20679;-46
2022/05/31 01:07:59;;;;;;;8.05;6.15;;;;;;;;;;5036789;28;20200;-46
2022/05/31 01:10:34;;;;;;;11.43;6.00;;;;;;;;;;5034694;28;20216;-45
2022/05/31 01:13:24;;;;;;;10.73;6.07;;;;;;;;;;5036183;28;20200;-46
2022/05/31 01:16:12;;;;;;;9.00;5.82;;;;;;;;;;5036532;28;20188;-46
2022/05/31 01:18:57;;;;;;;12.38;6.13;;;;;;;;;;5036844;28;20622;-46
2022/05/31 01:21:47;;;;;;;11.90;5.72;;;;;;;;;;5031078;28;20208;-45
2022/05/31 01:24:44;;;;;;;9.13;5.28;;;;;;;;;;5036261;28;20280;-46
2022/05/31 01:27:22;;;;;;;6.80;5.05;;;;;;;;;;5035992;28;20524;-46
2022/05/31 01:29:49;;;;;;;11.93;5.45;;;;;;;;;;5018939;28;20311;-45
2022/05/31 01:32:17;;;;;;;9.48;4.78;;;;;;;;;;5035746;28;20635;-45
2022/05/31 01:34:52;;;;;;;7.85;4.80;;;;;;;;;;5035793;28;20235;-46
2022/05/31 01:37:28;;;;;;;9.07;4.97;;;;;;;;;;5019280;28;20270;-45
2022/05/31 01:39:58;;;;;;;10.48;5.38;;;;;;;;;;5051719;28;20236;-46
2022/05/31 01:42:36;;;;;;;8.43;5.30;;;;;;;;;;5034867;28;20192;-46
2022/05/31 01:45:26;;;;;;;7.75;5.20;;;;;;;;;;5035488;28;20295;-46
2022/05/31 01:47:57;;;;;;;8.00;5.50;;;;;;;;;;5018747;28;20205;-46
2022/05/31 01:50:24;;;;;;;8.98;5.10;;;;;;;;;;5034514;28;20234;-47
2022/05/31 01:52:52;;;;;;;9.10;5.60;;;;;;;;;;5035344;28;20200;-45
2022/05/31 01:55:21;;;;;;;11.02;5.60;;;;;;;;;;5067456;28;20205;-47
2022/05/31 01:57:52;;;;;;;10.43;5.40;;;;;;;;;;5017984;28;20224;-45
2022/05/31 02:00:20;;;;;;;10.00;5.95;;;;;;;;;;5067698;28;20299;-46
2022/05/31 02:02:51;;;;;;;8.32;5.15;;;;;;;;;;5035221;28;20208;-46
2022/05/31 02:05:19;;;;;;;6.82;5.82;;;;;;;;;;5034846;28;20200;-45
2022/05/31 02:07:57;;;;;;;10.77;5.93;;;;;;;;;;5034435;28;20196;-46
2022/05/31 02:10:25;;;;;;;9.90;5.90;;;;;;;;;;5034015;28;20235;-47
2022/05/31 02:12:53;;;;;;;8.65;5.90;;;;;;;;;;5034297;28;20565;-47
2022/05/31 02:15:39;;;;;;;6.68;5.57;;;;;;;;;;5035062;28;20628;-45
2022/05/31 02:21:35;;;;;;;9.13;5.97;;;;;;;;;;5034735;28;20291;-46
2022/05/31 02:24:03;;;;;;;11.05;5.18;;;;;;;;;;5067087;28;20219;-45
2022/05/31 02:26:31;;;;;;;11.15;5.80;;;;;;;;;;5034856;28;20204;-46
2022/05/31 02:28:59;;;;;;;9.80;5.32;;;;;;;;;;5034013;28;20209;-45
2022/05/31 02:31:27;;;;;;;9.00;5.97;;;;;;;;;;5034506;28;20327;-45
2022/05/31 02:33:54;;;;;;;7.65;5.80;;;;;;;;;;5034847;28;20205;-45
2022/05/31 02:36:22;;;;;;;10.88;6.25;;;;;;;;;;5066876;28;20627;-45
2022/05/31 02:38:49;;;;;;;11.30;5.55;;;;;;;;;;5034576;28;20204;-46
2022/05/31 02:41:19;;;;;;;8.13;5.68;;;;;;;;;;5034126;28;20223;-46
2022/05/31 02:43:47;;;;;;;11.02;5.78;;;;;;;;;;5067034;28;20270;-46
2022/05/31 02:46:14;;;;;;;11.38;6.05;;;;;;;;;;5035276;28;20215;-45
2022/05/31 02:48:42;;;;;;;11.27;6.18;;;;;;;;;;5034429;28;20287;-45
2022/05/31 02:51:08;;;;;;;10.35;5.60;;;;;;;;;;5034535;28;20315;-45
2022/05/31 02:53:35;;;;;;;8.07;5.85;;;;;;;;;;5034115;28;20204;-45
2022/05/31 02:56:03;;;;;;;8.90;5.75;;;;;;;;;;5067542;28;20628;-45
2022/05/31 02:58:49;;;;;;;10.57;6.38;;;;;;;;;;5034986;28;20662;-45
2022/05/31 03:01:37;;;;;;;9.65;6.38;;;;;;;;;;5035157;28;20200;-46
2022/05/31 03:04:24;;;;;;;9.13;6.20;;;;;;;;;;5034437;28;20219;-45
2022/05/31 03:07:14;;;;;;;8.68;6.07;;;;;;;;;;5026673;28;20255;-45
2022/05/31 03:10:16;;;;;;;12.55;6.90;;;;;;;;;;4993527;28;20225;-46
2022/05/31 03:12:44;;;;;;;8.07;6.05;;;;;;;;;;4993610;28;20205;-45
2022/05/31 03:15:15;;;;;;;11.07;6.00;;;;;;;;;;4961370;28;20204;-45
2022/05/31 03:17:56;;;;;;;8.32;6.85;;;;;;;;;;4978184;28;20206;-45
2022/05/31 03:20:30;;;;;;;9.90;6.70;;;;;;;;;;4993611;28;20280;-45
2022/05/31 03:23:08;;;;;;;8.77;6.82;;;;;;;;;;4977693;28;20212;-45
2022/05/31 03:25:38;;;;;;;9.27;6.35;;;;;;;;;;4978137;28;20202;-46
2022/05/31 03:28:05;;;;;;;10.75;6.97;;;;;;;;;;4993414;28;20264;-45
2022/05/31 03:30:36;;;;;;;11.50;6.85;;;;;;;;;;4977427;28;20324;-46
2022/05/31 03:33:05;;;;;;;8.43;6.53;;;;;;;;;;4995894;28;20201;-45
2022/05/31 03:35:32;;;;;;;9.07;6.85;;;;;;;;;;4981074;28;20202;-46
2022/05/31 03:38:06;;;;;;;10.38;6.72;;;;;;;;;;4997802;28;20213;-45
2022/05/31 03:40:56;;;;;;;9.15;6.22;;;;;;;;;;4997327;28;20209;-46
2022/05/31 03:43:34;;;;;;;9.38;6.90;;;;;;;;;;4989123;28;20205;-45
2022/05/31 03:46:25;;;;;;;10.55;7.70;;;;;;;;;;5038343;28;20212;-44
2022/05/31 03:49:22;;;;;;;8.70;6.85;;;;;;;;;;5037019;28;20204;-46
2022/05/31 03:52:01;;;;;;;12.20;7.85;;;;;;;;;;5037319;28;20197;-45
2022/05/31 03:54:37;;;;;;;9.45;7.18;;;;;;;;;;5037134;28;20227;-45
2022/05/31 03:57:28;;;;;;;10.55;7.78;;;;;;;;;;5038578;28;20271;-46
2022/05/31 04:00:15;;;;;;;16.13;7.25;;;;;;;;;;5023086;28;20211;-48
2022/05/31 04:02:59;;;;;;;12.98;8.18;;;;;;;;;;5012837;28;20229;-48
2022/05/31 04:05:26;;;;;;;10.75;7.53;;;;;;;;;;5047579;28;20244;-48
2022/05/31 04:07:55;;;;;;;11.77;8.43;;;;;;;;;;5016103;28;20620;-49
2022/05/31 04:10:22;;;;;;;10.77;8.52;;;;;;;;;;5007094;28;20229;-46
2022/05/31 04:12:49;;;;;;;14.07;8.32;;;;;;;;;;5006062;28;20236;-45
2022/05/31 04:15:16;;;;;;;13.05;7.80;;;;;;;;;;5007231;28;20229;-46
2022/05/31 04:17:44;;;;;;;12.55;8.38;;;;;;;;;;5019165;28;20221;-46
2022/05/31 04:20:11;;;;;;;10.27;8.18;;;;;;;;;;5029318;28;20240;-45
2022/05/31 04:22:38;;;;;;;10.50;8.35;;;;;;;;;;5048725;28;20563;-46
2022/05/31 04:25:31;;;;;;;13.27;8.32;;;;;;;;;;5004320;28;20232;-45
2022/05/31 04:28:04;;;;;;;11.98;8.50;;;;;;;;;;5003495;28;20222;-45
2022/05/31 04:31:10;;;;;;;13.73;8.65;;;;;;;;;;5016375;28;20311;-45
2022/05/31 04:33:55;;;;;;;10.63;8.40;;;;;;;;;;5015210;28;20243;-45
2022/05/31 04:36:22;;;;;;;16.30;8.90;;;;;;;;;;5016580;28;20233;-46
2022/05/31 04:38:50;;;;;;;12.23;8.98;;;;;;;;;;5014740;28;20295;-44
2022/05/31 04:41:21;;;;;;;12.40;8.55;;;;;;;;;;5015315;28;20629;-44
2022/05/31 04:44:04;;;;;;;11.23;8.27;;;;;;;;;;5015199;28;20240;-44
2022/05/31 04:46:34;;;;;;;12.80;8.80;;;;;;;;;;5015571;28;20285;-50
2022/05/31 04:49:11;;;;;;;11.23;8.27;;;;;;;;;;5015890;28;20224;-45
2022/05/31 04:51:38;;;;;;;10.90;8.13;;;;;;;;;;5013249;28;20609;-48
2022/05/31 04:54:07;;;;;;;11.13;7.88;;;;;;;;;;5014065;28;20236;-47
2022/05/31 04:56:46;;;;;;;10.27;7.78;;;;;;;;;;5016126;28;20279;-45
2022/05/31 04:59:13;;;;;;;9.38;7.45;;;;;;;;;;5015091;28;20225;-46
2022/05/31 05:01:41;;;;;;;13.52;8.05;;;;;;;;;;5015026;28;20687;-48
2022/05/31 05:04:15;;;;;;;9.68;7.30;;;;;;;;;;5015356;28;20231;-46
2022/05/31 05:06:50;;;;;;;11.10;8.30;;;;;;;;;;5014498;28;20302;-49
2022/05/31 05:09:19;;;;;;;10.18;8.05;;;;;;;;;;5014424;28;20233;-46
2022/05/31 05:12:09;;;;;;;10.90;7.55;;;;;;;;;;5016172;28;20244;-47
2022/05/31 05:14:39;;;;;;;11.15;7.80;;;;;;;;;;5013746;28;20217;-48
2022/05/31 05:17:12;;;;;;;12.48;8.13;;;;;;;;;;5013786;28;20265;-45
2022/05/31 05:19:43;;;;;;;12.10;7.30;;;;;;;;;;5013886;28;20221;-46
2022/05/31 05:22:11;;;;;;;10.15;7.45;;;;;;;;;;5011890;28;20221;-46
2022/05/31 05:24:38;;;;;;;8.65;6.70;;;;;;;;;;5013679;28;20308;-47
2022/05/31 05:27:23;;;;;;;11.35;6.75;;;;;;;;;;5013788;28;20225;-46
2022/05/31 05:32:43;;;;;;;11.07;6.78;;;;;;;;;;5013146;28;20283;-46
2022/05/31 05:35:14;;;;;;;8.90;6.18;;;;;;;;;;5013298;28;20766;-49
2022/05/31 05:37:49;;;;;;;7.82;6.25;;;;;;;;;;5012757;28;20221;-50
2022/05/31 05:40:23;;;;;;;9.20;6.72;;;;;;;;;;5013396;28;20287;-46
2022/05/31 05:43:01;;;;;;;10.00;6.95;;;;;;;;;;5010771;28;20237;-46
2022/05/31 05:45:36;;;;;;;8.30;6.55;;;;;;;;;;5046290;28;20661;-48
2022/05/31 05:48:04;;;;;;;9.32;7.15;;;;;;;;;;5013065;28;20240;-46
2022/05/31 05:50:34;;;;;;;8.65;6.68;;;;;;;;;;5012862;28;20652;-46
2022/05/31 05:53:06;;;;;;;11.32;6.50;;;;;;;;;;5011592;28;20233;-47
2022/05/31 05:55:49;;;;;;;8.73;7.32;;;;;;;;;;5011936;28;20618;-50
2022/05/31 05:58:35;;;;;;;11.43;6.78;;;;;;;;;;5012968;28;20221;-49
2022/05/31 06:01:29;;;;;;;8.57;6.28;;;;;;;;;;5011478;28;20680;-47
2022/05/31 06:05:12;;;;;;;9.05;6.65;;;;;;;;;;5011950;28;20221;-48
2022/05/31 06:07:46;;;;;;;9.25;6.43;;;;;;;;;;4994298;28;20624;-48
2022/05/31 06:10:19;;;;;;;8.02;6.00;;;;;;;;;;4994606;28;20230;-46
2022/05/31 06:13:10;;;;;;;6.63;5.93;;;;;;;;;;5027014;28;20364;-46
2022/05/31 06:15:41;;;;;;;10.20;5.82;;;;;;;;;;4994083;28;20238;-47
2022/05/31 06:18:13;;;;;;;8.77;5.70;;;;;;;;;;4994486;28;20229;-48
2022/05/31 06:20:45;;;;;;;6.35;5.32;;;;;;;;;;5026734;28;20661;-47
2022/05/31 06:23:13;;;;;;;9.23;5.18;;;;;;;;;;4977812;28;20236;-46
2022/05/31 06:25:41;;;;;;;8.75;6.10;;;;;;;;;;4995144;28;20232;-47
2022/05/31 06:28:17;;;;;;;7.57;5.10;;;;;;;;;;5014650;28;20235;-46
2022/05/31 06:30:44;;;;;;;9.10;6.18;;;;;;;;;;5014674;28;20236;-45
2022/05/31 06:33:11;;;;;;;6.70;5.25;;;;;;;;;;5014225;28;20202;-46
2022/05/31 06:35:42;;;;;;;6.68;5.57;;;;;;;;;;5014750;28;20220;-46
2022/05/31 06:38:11;;;;;;;7.50;5.47;;;;;;;;;;5015269;28;20209;-46
2022/05/31 06:40:41;;;;;;;7.70;5.05;;;;;;;;;;5014033;28;20632;-46
2022/05/31 06:43:28;;;;;;;8.25;5.38;;;;;;;;;;5014885;28;20209;-46
2022/05/31 06:46:19;;;;;;;12.02;5.03;;;;;;;;;;5005045;28;20284;-47
2022/05/31 06:49:06;;;;;;;11.07;5.50;;;;;;;;;;5015025;28;20589;-50
2022/05/31 06:57:48;;;;;;;5.32;3.75;;;;;;;;;;4984775;28;20255;-46
2022/05/31 07:00:26;;;;;;;5.80;4.10;;;;;;;;;;5013930;28;20201;-46
2022/05/31 07:02:55;;;;;;;6.57;4.18;;;;;;;;;;5014155;28;20240;-46
2022/05/31 07:05:30;;;;;;;4.75;3.80;;;;;;;;;;5013732;28;20205;-46
2022/05/31 07:07:59;;;;;;;4.25;3.25;;;;;;;;;;5016426;28;20504;-46
2022/05/31 07:10:46;;;;;;;5.30;3.90;;;;;;;;;;4998264;28;20225;-45
2022/05/31 07:13:17;;;;;;;4.88;3.13;;;;;;;;;;5019522;28;20201;-46
2022/05/31 07:16:03;;;;;;;5.40;3.35;;;;;;;;;;5018657;28;20214;-45
2022/05/31 07:18:58;;;;;;;5.63;3.95;;;;;;;;;;5019031;28;20283;-45
2022/05/31 07:21:29;;;;;;;6.22;3.65;;;;;;;;;;5018054;28;20209;-46
2022/05/31 07:23:57;;;;;;;4.05;2.90;;;;;;;;;;5018779;28;20228;-45
2022/05/31 07:26:27;;;;;;;4.43;3.20;;;;;;;;;;5018013;28;20181;-45
2022/05/31 07:29:04;;;;;;;5.25;2.78;;;;;;;;;;5017638;28;20209;-46
2022/05/31 07:31:31;;;;;;;5.55;3.42;;;;;;;;;;5017402;28;20686;-45
2022/05/31 07:34:07;;;;;;;5.47;1.95;;;;;;;;;;5017883;28;20553;-46
2022/05/31 07:36:35;;;;;;;3.22;2.15;;;;;;;;;;5017581;28;20543;-45
2022/05/31 07:39:11;;;;;;;5.28;3.42;;;;;;;;;;5017417;28;20201;-50
2022/05/31 07:41:40;;;;;;;5.47;3.80;;;;;;;;;;5018433;28;20208;-45
2022/05/31 07:44:08;;;;;;;5.80;3.17;;;;;;;;;;5017933;28;20202;-46
2022/05/31 07:46:37;;;;;;;6.43;3.60;;;;;;;;;;5017393;28;20209;-46
2022/05/31 07:49:05;;;;;;;4.50;3.42;;;;;;;;;;5017374;28;20659;-46
2022/05/31 07:51:58;;;;;;;4.28;3.40;;;;;;;;;;4995683;28;20319;-45
2022/05/31 07:54:45;;;;;;;4.15;3.10;;;;;;;;;;5018091;28;20205;-45
2022/05/31 08:00:46;;;;;;;4.63;3.33;;;;;;;;;;4965181;28;20200;-45
2022/05/31 08:03:13;;;;;;;4.45;3.05;;;;;;;;;;5017397;28;20537;-47
2022/05/31 08:05:40;;;;;;;7.18;3.78;;;;;;;;;;5017873;28;20201;-46
2022/05/31 08:08:09;;;;;;;6.30;3.47;;;;;;;;;;4983960;28;20206;-46
2022/05/31 08:10:56;;;;;;;3.90;2.42;;;;;;;;;;5017632;28;20565;-45
2022/05/31 08:13:23;;;;;;;3.15;2.25;;;;;;;;;;5017840;28;20209;-45
2022/05/31 08:15:51;;;;;;;3.28;2.40;;;;;;;;;;5018013;28;20530;-45
2022/05/31 08:18:18;;;;;;;4.20;2.30;;;;;;;;;;5017136;28;20220;-46
2022/05/31 08:20:45;;;;;;;4.57;2.33;;;;;;;;;;5017803;28;20340;-45
2022/05/31 08:23:12;;;;;;;3.90;2.22;;;;;;;;;;5017679;28;20201;-46
2022/05/31 08:25:39;;;;;;;3.63;2.17;;;;;;;;;;5016741;28;20205;-46
2022/05/31 08:28:06;;;;;;;3.65;2.40;;;;;;;;;;5017686;28;20208;-46
2022/05/31 08:30:33;;;;;;;3.03;2.38;;;;;;;;;;5017438;28;20217;-45
2022/05/31 08:33:00;;;;;;;5.13;2.58;;;;;;;;;;5017728;28;20229;-45
2022/05/31 08:35:28;;;;;;;6.00;2.60;;;;;;;;;;5017526;28;20205;-45
2022/05/31 08:38:15;;;;;;;3.65;2.00;;;;;;;;;;5017526;28;20267;-45
2022/05/31 08:41:11;;;;;;;5.05;2.00;;;;;;;;;;5017153;28;20197;-46
2022/05/31 08:43:47;;;;;;;3.72;2.45;;;;;;;;;;5014880;28;20683;-45
2022/05/31 08:46:32;;;;;;;4.45;2.35;;;;;;;;;;5017275;28;20283;-46
2022/05/31 08:49:18;;;;;;;3.88;2.30;;;;;;;;;;5016929;28;20216;-46
2022/05/31 08:51:55;;;;;;;5.25;2.47;;;;;;;;;;5017395;28;20233;-46
2022/05/31 08:57:46;;;;;;;2.60;1.88;;;;;;;;;;5002576;28;20220;-45
2022/05/31 09:00:18;;;;;;;3.78;2.15;;;;;;;;;;5016767;28;20201;-46
2022/05/31 09:02:53;;;;;;;3.25;2.03;;;;;;;;;;5048907;28;20210;-46
2022/05/31 09:05:27;;;;;;;3.72;2.00;;;;;;;;;;5016928;28;20280;-45
2022/05/31 09:08:06;;;;;;;3.45;2.15;;;;;;;;;;5016463;28;20272;-45
2022/05/31 09:10:40;;;;;;;7.13;2.10;;;;;;;;;;5016902;28;20205;-45
2022/05/31 09:13:22;;;;;;;3.50;1.85;;;;;;;;;;4999086;28;20236;-47
2022/05/31 09:15:53;;;;;;;4.93;2.45;;;;;;;;;;5015590;28;20248;-45
2022/05/31 09:18:38;;;;;;;3.63;1.95;;;;;;;;;;5017122;28;20189;-45
2022/05/31 09:21:22;;;;;;;2.97;2.10;;;;;;;;;;5016663;28;20193;-45
2022/05/31 09:23:50;;;;;;;3.67;1.92;;;;;;;;;;5015034;28;20225;-46
2022/05/31 09:26:26;;;;;;;2.92;1.80;;;;;;;;;;5016574;28;20216;-45
2022/05/31 09:29:04;;;;;;;6.00;2.30;;;;;;;;;;5016787;28;20181;-46
2022/05/31 09:31:43;;;;;;;2.50;2.03;;;;;;;;;;5047199;28;20219;-45
2022/05/31 09:34:32;;;;;;;7.95;2.20;;;;;;;;;;5015395;28;20224;-46
2022/05/31 09:37:36;;;;;;;2.65;2.00;;;;;;;;;;5015595;28;20206;-46
2022/05/31 09:40:28;;;;;;;3.42;1.67;;;;;;;;;;5016240;28;20259;-45
2022/05/31 09:43:03;;;;;;;7.22;1.80;;;;;;;;;;5016905;28;20206;-46
2022/05/31 09:45:35;;;;;;;3.97;1.90;;;;;;;;;;5016287;28;20220;-46
2022/05/31 09:48:04;;;;;;;2.72;1.83;;;;;;;;;;5048045;28;20216;-46
2022/05/31 09:50:31;;;;;;;6.13;1.85;;;;;;;;;;5016330;28;20201;-46
2022/05/31 09:52:59;;;;;;;2.67;1.80;;;;;;;;;;5015654;28;20243;-45
2022/05/31 09:58:42;;;;;;;4.05;1.70;;;;;;;;;;5015923;28;20197;-45
2022/05/31 10:01:31;;;;;;;4.10;2.03;;;;;;;;;;5015198;28;20271;-45
2022/05/31 10:04:09;;;;;;;3.30;2.33;;;;;;;;;;5015352;28;20205;-45
2022/05/31 10:06:56;;;;;;;6.18;2.22;;;;;;;;;;5016211;28;20225;-46
2022/05/31 10:09:30;;;;;;;6.85;2.00;;;;;;;;;;5016035;28;20267;-46
2022/05/31 10:12:10;;;;;;;2.72;1.95;;;;;;;;;;5015542;28;20212;-45
2022/05/31 10:14:41;;;;;;;7.35;2.03;;;;;;;;;;5016121;28;20219;-45
2022/05/31 10:17:37;;;;;;;5.95;2.05;;;;;;;;;;5015784;28;20201;-46
2022/05/31 10:20:13;;;;;;;4.35;1.85;;;;;;;;;;5015330;28;20676;-46
2022/05/31 10:23:06;;;;;;;4.70;1.77;;;;;;;;;;5016137;28;20219;-46
2022/05/31 10:25:54;;;;;;;4.13;1.60;;;;;;;;;;5015336;28;20284;-45
2022/05/31 10:28:51;;;;;;;3.58;1.63;;;;;;;;;;5016048;28;20205;-45
2022/05/31 10:31:39;;;;;;;1.73;1.60;;;;;;;;;;5014568;28;20232;-46
2022/05/31 10:34:25;;;;;;;2.78;1.60;;;;;;;;;;5015458;28;20528;-46
2022/05/31 10:36:55;;;;;;;4.00;1.50;;;;;;;;;;5016035;28;20205;-46
2022/05/31 10:39:25;;;;;;;2.42;1.67;;;;;;;;;;5015439;28;20248;-46
2022/05/31 10:41:55;;;;;;;3.88;1.70;;;;;;;;;;5014906;28;20209;-46
2022/05/31 10:44:36;;;;;;;2.10;1.40;;;;;;;;;;5015276;28;20594;-46
2022/05/31 10:47:12;;;;;;;2.63;1.50;;;;;;;;;;5014110;28;20628;-45
2022/05/31 10:49:41;;;;;;;4.43;1.67;;;;;;;;;;5015329;28;20219;-46
2022/05/31 10:52:15;;;;;;;5.00;1.65;;;;;;;;;;5015236;28;20217;-46
2022/05/31 10:54:52;;;;;;;4.97;1.88;;;;;;;;;;5015011;28;20201;-45
2022/05/31 10:57:31;;;;;;;3.53;1.60;;;;;;;;;;5014439;28;20208;-45
2022/05/31 11:00:25;;;;;;;2.97;1.70;;;;;;;;;;5015286;28;20189;-45
2022/05/31 11:03:14;;;;;;;2.38;1.70;;;;;;;;;;5015150;28;20228;-45
2022/05/31 11:05:41;;;;;;;4.05;1.77;;;;;;;;;;5013958;28;20558;-45
2022/05/31 11:11:40;;;;;;;2.50;1.80;;;;;;;;;;5014879;28;20197;-46
2022/05/31 11:14:30;;;;;;;3.22;1.52;;;;;;;;;;5014783;28;20212;-46
2022/05/31 11:17:01;;;;;;;4.10;1.85;;;;;;;;;;4995451;28;20233;-47
2022/05/31 11:19:31;;;;;;;5.00;1.45;;;;;;;;;;5004542;28;20552;-46
2022/05/31 11:22:14;;;;;;;2.60;1.50;;;;;;;;;;5006003;28;20225;-48
2022/05/31 11:24:52;;;;;;;3.17;1.90;;;;;;;;;;5014491;28;20224;-46
2022/05/31 11:27:24;;;;;;;2.60;1.83;;;;;;;;;;5008881;28;20302;-50
2022/05/31 11:30:00;;;;;;;2.53;1.45;;;;;;;;;;5021873;28;20232;-46
2022/05/31 11:32:59;;;;;;;2.85;1.50;;;;;;;;;;5003560;28;20319;-48
2022/05/31 11:35:42;;;;;;;3.95;1.60;;;;;;;;;;5004307;28;20229;-47
2022/05/31 11:38:21;;;;;;;3.28;1.48;;;;;;;;;;5002953;28;20217;-49
2022/05/31 11:40:58;;;;;;;3.20;1.40;;;;;;;;;;5033777;28;20237;-46
2022/05/31 11:43:31;;;;;;;2.88;1.30;;;;;;;;;;5000825;28;20224;-46
2022/05/31 11:46:12;;;;;;;2.83;1.52;;;;;;;;;;5002066;28;20225;-46
2022/05/31 11:48:59;;;;;;;2.78;1.30;;;;;;;;;;5003270;28;20218;-46
2022/05/31 11:52:14;;;;;;;4.22;1.60;;;;;;;;;;5003612;28;20225;-47
2022/05/31 11:58:16;;;;;;;3.00;1.92;;;;;;;;;;5011979;28;20685;-54
2022/05/31 12:01:00;;;;;;;3.55;1.42;;;;;;;;;;5009054;28;20221;-48
2022/05/31 12:03:36;;;;;;;2.90;1.65;;;;;;;;;;5009861;28;20228;-47
2022/05/31 12:06:14;;;;;;;3.33;1.40;;;;;;;;;;5009073;28;20578;-45
2022/05/31 12:08:51;;;;;;;2.60;1.50;;;;;;;;;;5009726;28;20225;-46
2022/05/31 12:11:27;;;;;;;2.63;1.40;;;;;;;;;;5002138;28;20610;-45
2022/05/31 12:13:55;;;;;;;2.20;1.42;;;;;;;;;;5028584;28;20563;-45
2022/05/31 12:16:23;;;;;;;2.65;1.58;;;;;;;;;;5007078;28;20222;-47
2022/05/31 12:19:26;;;;;;;2.58;1.52;;;;;;;;;;5006742;28;20221;-45
2022/05/31 12:22:01;;;;;;;3.05;1.65;;;;;;;;;;4973458;28;20234;-52
2022/05/31 12:24:32;;;;;;;5.38;1.70;;;;;;;;;;5005917;28;20217;-45
2022/05/31 12:27:10;;;;;;;5.35;1.52;;;;;;;;;;5006832;28;20591;-45
2022/05/31 12:29:48;;;;;;;3.40;1.58;;;;;;;;;;5016101;28;20399;-50
2022/05/31 12:32:36;;;;;;;2.88;1.52;;;;;;;;;;5005680;28;20300;-48
2022/05/31 12:35:06;;;;;;;4.20;1.52;;;;;;;;;;5007130;28;20218;-46
2022/05/31 12:37:53;;;;;;;1.25;1.15;;;;;;;;;;4989922;28;20233;-46
2022/05/31 12:40:32;;;;;;;2.40;1.55;;;;;;;;;;5028707;28;20682;-45
2022/05/31 12:43:04;;;;;;;1.67;1.40;;;;;;;;;;5005822;28;20229;-45
2022/05/31 12:45:33;;;;;;;3.05;1.50;;;;;;;;;;5005456;28;20560;-46
2022/05/31 12:48:30;;;;;;;1.77;1.30;;;;;;;;;;5004254;28;20233;-50
2022/05/31 12:50:59;;;;;;;2.95;1.40;;;;;;;;;;5006426;28;20723;-46
2022/05/31 12:53:36;;;;;;;2.90;1.30;;;;;;;;;;5004286;28;20241;-46
2022/05/31 12:56:07;;;;;;;3.53;1.38;;;;;;;;;;5003969;28;20221;-46
2022/05/31 12:58:37;;;;;;;2.28;1.50;;;;;;;;;;5000430;28;20249;-46
2022/05/31 13:01:15;;;;;;;2.42;1.45;;;;;;;;;;4998526;28;20230;-48
2022/05/31 13:03:42;;;;;;;4.63;1.58;;;;;;;;;;5018978;28;20224;-45
2022/05/31 13:06:10;;;;;;;2.65;1.30;;;;;;;;;;5025880;28;20261;-45
2022/05/31 13:08:52;;;;;;;3.47;1.48;;;;;;;;;;5026617;28;20221;-45
2022/05/31 13:20:23;;;;;;;3.50;1.77;;;;;;;;;;5035013;28;20228;-46
2022/05/31 13:23:02;;;;;;;4.45;1.52;;;;;;;;;;5028303;28;20221;-46
2022/05/31 13:25:50;;;;;;;3.38;1.92;;;;;;;;;;5015856;28;20675;-46
2022/05/31 13:28:35;;;;;;;5.32;1.92;;;;;;;;;;5015616;28;20553;-45
2022/05/31 13:31:15;;;;;;;4.22;1.88;;;;;;;;;;5014999;28;20248;-45
2022/05/31 13:33:44;;;;;;;9.43;2.58;;;;;;;;;;5015173;28;20330;-47
2022/05/31 13:36:16;;;;;;;5.15;1.65;;;;;;;;;;5014484;28;20567;-52
2022/05/31 13:38:45;;;;;;;1.88;1.48;;;;;;;;;;4998372;28;20679;-46
2022/05/31 13:41:15;;;;;;;3.95;1.45;;;;;;;;;;5014836;28;20245;-45
2022/05/31 13:43:55;;;;;;;7.05;1.45;;;;;;;;;;5015848;28;20291;-45
2022/05/31 13:46:26;;;;;;;3.80;1.45;;;;;;;;;;5014352;28;20225;-46
2022/05/31 13:48:57;;;;;;;3.33;1.60;;;;;;;;;;5011602;28;20252;-50
2022/05/31 13:51:27;;;;;;;4.88;1.45;;;;;;;;;;5012228;28;20225;-47
2022/05/31 13:54:04;;;;;;;5.78;1.88;;;;;;;;;;5014180;28;20236;-45
2022/05/31 13:56:33;;;;;;;2.78;1.58;;;;;;;;;;5014228;28;20244;-47
2022/05/31 13:59:00;;;;;;;3.83;1.55;;;;;;;;;;5014018;28;20239;-45
2022/05/31 14:01:44;;;;;;;5.20;1.40;;;;;;;;;;5014211;28;20304;-45
2022/05/31 14:04:18;;;;;;;2.08;1.58;;;;;;;;;;5014111;28;20287;-51
2022/05/31 14:06:47;;;;;;;3.00;1.63;;;;;;;;;;5015099;28;20236;-49
2022/05/31 14:09:17;;;;;;;1.88;1.60;;;;;;;;;;5014881;28;20229;-45
2022/05/31 14:12:03;;;;;;;1.92;1.45;;;;;;;;;;5014765;28;20229;-44
2022/05/31 14:14:47;;;;;;;3.88;1.70;;;;;;;;;;5013534;28;20257;-45
2022/05/31 14:17:36;;;;;;;4.78;1.65;;;;;;;;;;5014801;28;20225;-45
2022/05/31 14:20:20;;;;;;;2.13;1.27;;;;;;;;;;5014107;28;20294;-44
2022/05/31 14:22:47;;;;;;;2.58;1.63;;;;;;;;;;5013023;28;20229;-46
2022/05/31 14:25:16;;;;;;;2.33;1.70;;;;;;;;;;5013471;28;20233;-46
2022/05/31 14:27:44;;;;;;;4.40;1.80;;;;;;;;;;5012873;28;20248;-45
2022/05/31 14:30:47;;;;;;;3.28;1.58;;;;;;;;;;5022638;28;20228;-45
2022/05/31 14:33:14;;;;;;;3.22;1.80;;;;;;;;;;5011630;28;20244;-46
2022/05/31 14:35:49;;;;;;;2.53;1.73;;;;;;;;;;5015142;28;20279;-45
2022/05/31 14:38:30;;;;;;;2.42;1.50;;;;;;;;;;5030429;28;20656;-45
2022/05/31 14:41:28;;;;;;;3.38;1.75;;;;;;;;;;5013745;28;20667;-48
2022/05/31 14:43:59;;;;;;;3.00;1.50;;;;;;;;;;4987582;28;20226;-44
2022/05/31 14:46:28;;;;;;;3.50;1.50;;;;;;;;;;4991487;28;20252;-46
2022/05/31 14:49:22;;;;;;;2.40;1.60;;;;;;;;;;4992118;28;20221;-45
2022/05/31 14:51:50;;;;;;;8.75;1.90;;;;;;;;;;4982548;28;20244;-46
2022/05/31 14:54:36;;;;;;;4.63;1.70;;;;;;;;;;4991995;28;20230;-45
2022/05/31 14:58:37;;;;;;;1.85;1.45;;;;;;;;;;4997502;28;20236;-44
2022/05/31 15:00:18;;;;;;;3.40;1.58;;;;;;;;;;4998654;28;20691;-46
2022/05/31 15:02:47;;;;;;;2.00;1.48;;;;;;;;;;5001933;28;20225;-47
2022/05/31 15:05:26;;;;;;;3.30;1.65;;;;;;;;;;5011980;28;20225;-47
2022/05/31 15:08:00;;;;;;;2.88;1.55;;;;;;;;;;4996228;28;20240;-45
2022/05/31 15:10:27;;;;;;;7.78;1.58;;;;;;;;;;5012455;28;20205;-45
2022/05/31 15:21:21;;;;;;;5.30;1.88;;;;;;;;;;5025548;28;20631;-45
2022/05/31 15:23:49;;;;;;;14.63;2.45;;;;;;;;;;5033341;28;20212;-44
2022/05/31 15:26:17;;;;;;;27.05;3.00;;;;;;;;;;5031754;28;20220;-44
2022/05/31 15:28:44;;;;;;;30.25;2.55;;;;;;;;;;5016923;28;20201;-45
2022/05/31 15:31:34;;;;;;;47.65;3.67;;;;;;;;;;5018655;28;20231;-45
2022/05/31 15:34:21;;;;;;;17.00;1.92;;;;;;;;;;5017538;28;20225;-46
2022/05/31 15:36:48;;;;;;;5.50;2.03;;;;;;;;;;5036503;28;20631;-44
2022/05/31 15:39:17;;;;;;;8.00;2.08;;;;;;;;;;5037027;28;20197;-44
2022/05/31 15:41:44;;;;;;;7.15;2.70;;;;;;;;;;5036511;28;20204;-45
2022/05/31 15:44:11;;;;;;;10.00;2.75;;;;;;;;;;5037384;28;20204;-45
2022/05/31 15:46:38;;;;;;;3.88;2.33;;;;;;;;;;5036916;28;20200;-46
2022/05/31 15:49:07;;;;;;;4.78;2.90;;;;;;;;;;5037712;28;20204;-45
2022/05/31 15:51:39;;;;;;;2.90;1.75;;;;;;;;;;5031094;28;20202;-44
2022/05/31 15:54:10;;;;;;;4.03;1.70;;;;;;;;;;5018736;28;20312;-44
2022/05/31 15:56:37;;;;;;;5.15;2.50;;;;;;;;;;5019910;28;20197;-49
2022/05/31 15:59:06;;;;;;;3.60;2.00;;;;;;;;;;5024762;28;20201;-45
2022/05/31 16:01:40;;;;;;;15.45;2.17;;;;;;;;;;5026480;28;20212;-45
2022/05/31 16:04:07;;;;;;;4.07;1.52;;;;;;;;;;5037679;28;20196;-44
2022/05/31 16:06:34;;;;;;;5.28;1.60;;;;;;;;;;5037644;28;20232;-45
2022/05/31 16:09:03;;;;;;;3.20;1.65;;;;;;;;;;5036748;28;20266;-45
2022/05/31 16:11:35;;;;;;;3.13;1.40;;;;;;;;;;5037532;28;20209;-46
2022/05/31 16:14:03;;;;;;;3.25;2.08;;;;;;;;;;5037567;28;20215;-45
2022/05/31 16:16:29;;;;;;;5.00;2.42;;;;;;;;;;5037546;28;20216;-44